sensor_id;sensor_type;location;lat;lon;timestamp;temperature;humidity
27890;DHT22;15238;49.082;9.102;2022-07-24T00:01:48;20.70;99.90
27890;DHT22;15238;49.082;9.102;2022-07-24T00:03:48;20.70;99.90
27890;DHT22;15238;49.082;9.102;2022-07-24T00:05:49;20.60;99.90
27890;DHT22;15238;49.082;9.102;2022-07-24T00:07:49;20.60;99.90
27890;DHT22;15238;49.082;9.102;2022-07-24T00:09:50;20.60;99.90
27890;DHT22;15238;49.082;9.102;2022-07-24T00:11:50;20.50;99.90
27890;DHT22;15238;49.082;9.102;2022-07-24T00:13:51;20.40;99.90
27890;DHT22;15238;49.082;9.102;2022-07-24T00:15:52;20.40;99.90
27890;DHT22;15238;49.082;9.102;2022-07-24T00:17:52;20.30;99.90
27890;DHT22;15238;49.082;9.102;2022-07-24T00:19:53;20.30;99.90
27890;DHT22;15238;49.082;9.102;2022-07-24T00:21:53;20.30;99.90
27890;DHT22;15238;49.082;9.102;2022-07-24T00:23:54;20.30;99.90
27890;DHT22;15238;49.082;9.102;2022-07-24T00:25:55;20.30;99.90
27890;DHT22;15238;49.082;9.102;2022-07-24T00:27:56;20.30;99.90
27890;DHT22;15238;49.082;9.102;2022-07-24T00:29:56;20.40;99.90
27890;DHT22;15238;49.082;9.102;2022-07-24T00:31:57;20.40;99.90
27890;DHT22;15238;49.082;9.102;2022-07-24T00:33:57;20.40;99.90
27890;DHT22;15238;49.082;9.102;2022-07-24T00:35:58;20.40;99.90
27890;DHT22;15238;49.082;9.102;2022-07-24T00:37:58;20.50;99.90
27890;DHT22;15238;49.082;9.102;2022-07-24T00:39:59;20.50;99.90
27890;DHT22;15238;49.082;9.102;2022-07-24T00:42:00;20.50;99.90
27890;DHT22;15238;49.082;9.102;2022-07-24T00:44:16;20.50;99.90
27890;DHT22;15238;49.082;9.102;2022-07-24T00:46:18;20.50;99.90
27890;DHT22;15238;49.082;9.102;2022-07-24T00:48:19;20.50;99.90
27890;DHT22;15238;49.082;9.102;2022-07-24T00:50:19;20.60;99.90
27890;DHT22;15238;49.082;9.102;2022-07-24T00:52:20;20.60;99.90
27890;DHT22;15238;49.082;9.102;2022-07-24T00:54:21;20.50;99.90
27890;DHT22;15238;49.082;9.102;2022-07-24T00:56:22;20.50;99.90
27890;DHT22;15238;49.082;9.102;2022-07-24T00:58:23;20.50;99.90
27890;DHT22;15238;49.082;9.102;2022-07-24T01:00:24;20.50;99.90
27890;DHT22;15238;49.082;9.102;2022-07-24T01:02:24;20.50;99.90
27890;DHT22;15238;49.082;9.102;2022-07-24T01:04:25;20.50;99.90
27890;DHT22;15238;49.082;9.102;2022-07-24T01:06:26;20.50;99.90
27890;DHT22;15238;49.082;9.102;2022-07-24T01:08:26;20.50;99.90
27890;DHT22;15238;49.082;9.102;2022-07-24T01:10:27;20.50;99.90
27890;DHT22;15238;49.082;9.102;2022-07-24T01:12:27;20.50;99.90
27890;DHT22;15238;49.082;9.102;2022-07-24T01:14:31;20.50;99.90
27890;DHT22;15238;49.082;9.102;2022-07-24T01:16:32;20.50;99.90
27890;DHT22;15238;49.082;9.102;2022-07-24T01:18:33;20.40;99.90
27890;DHT22;15238;49.082;9.102;2022-07-24T01:20:37;20.40;99.90
27890;DHT22;15238;49.082;9.102;2022-07-24T01:22:39;20.30;99.90
27890;DHT22;15238;49.082;9.102;2022-07-24T01:24:39;20.30;99.90
27890;DHT22;15238;49.082;9.102;2022-07-24T01:26:40;20.30;99.90
27890;DHT22;15238;49.082;9.102;2022-07-24T01:28:40;20.30;99.90
27890;DHT22;15238;49.082;9.102;2022-07-24T01:30:41;20.20;99.90
27890;DHT22;15238;49.082;9.102;2022-07-24T01:32:42;20.10;99.90
27890;DHT22;15238;49.082;9.102;2022-07-24T01:34:42;20.00;99.90
27890;DHT22;15238;49.082;9.102;2022-07-24T01:36:43;20.00;99.90
27890;DHT22;15238;49.082;9.102;2022-07-24T01:38:44;20.00;99.90
27890;DHT22;15238;49.082;9.102;2022-07-24T01:40:44;20.00;99.90
27890;DHT22;15238;49.082;9.102;2022-07-24T01:42:45;20.00;99.90
27890;DHT22;15238;49.082;9.102;2022-07-24T01:44:45;20.00;99.90
27890;DHT22;15238;49.082;9.102;2022-07-24T01:46:46;20.00;99.90
27890;DHT22;15238;49.082;9.102;2022-07-24T01:48:47;20.00;99.90
27890;DHT22;15238;49.082;9.102;2022-07-24T01:50:47;19.90;99.90
27890;DHT22;15238;49.082;9.102;2022-07-24T01:52:48;19.90;99.90
27890;DHT22;15238;49.082;9.102;2022-07-24T01:54:48;19.90;99.90
27890;DHT22;15238;49.082;9.102;2022-07-24T01:56:49;19.90;99.90
27890;DHT22;15238;49.082;9.102;2022-07-24T01:58:49;19.80;99.90
27890;DHT22;15238;49.082;9.102;2022-07-24T02:00:50;19.80;99.90
27890;DHT22;15238;49.082;9.102;2022-07-24T02:02:51;19.80;99.90
27890;DHT22;15238;49.082;9.102;2022-07-24T02:04:52;19.80;99.90
27890;DHT22;15238;49.082;9.102;2022-07-24T02:06:52;19.80;99.90
27890;DHT22;15238;49.082;9.102;2022-07-24T02:08:53;19.70;99.90
27890;DHT22;15238;49.082;9.102;2022-07-24T02:10:53;19.70;99.90
27890;DHT22;15238;49.082;9.102;2022-07-24T02:12:54;19.60;99.90
27890;DHT22;15238;49.082;9.102;2022-07-24T02:14:55;19.60;99.90
27890;DHT22;15238;49.082;9.102;2022-07-24T02:16:56;19.50;99.90
27890;DHT22;15238;49.082;9.102;2022-07-24T02:18:56;19.50;99.90
27890;DHT22;15238;49.082;9.102;2022-07-24T02:20:57;19.50;99.90
27890;DHT22;15238;49.082;9.102;2022-07-24T02:22:58;19.50;99.90
27890;DHT22;15238;49.082;9.102;2022-07-24T02:24:58;19.50;99.90
27890;DHT22;15238;49.082;9.102;2022-07-24T02:26:59;19.40;99.90
27890;DHT22;15238;49.082;9.102;2022-07-24T02:28:59;19.40;99.90
27890;DHT22;15238;49.082;9.102;2022-07-24T02:31:00;19.40;99.90
27890;DHT22;15238;49.082;9.102;2022-07-24T02:33:00;19.40;99.90
27890;DHT22;15238;49.082;9.102;2022-07-24T02:35:01;19.40;99.90
27890;DHT22;15238;49.082;9.102;2022-07-24T02:37:01;19.30;99.90
27890;DHT22;15238;49.082;9.102;2022-07-24T02:39:02;19.30;99.90
27890;DHT22;15238;49.082;9.102;2022-07-24T02:41:04;19.30;99.90
27890;DHT22;15238;49.082;9.102;2022-07-24T02:43:04;19.20;99.90
27890;DHT22;15238;49.082;9.102;2022-07-24T02:45:06;19.10;99.90
27890;DHT22;15238;49.082;9.102;2022-07-24T02:47:07;19.00;99.90
27890;DHT22;15238;49.082;9.102;2022-07-24T02:49:08;19.00;99.90
27890;DHT22;15238;49.082;9.102;2022-07-24T02:51:08;19.00;99.90
27890;DHT22;15238;49.082;9.102;2022-07-24T02:53:10;19.00;99.90
27890;DHT22;15238;49.082;9.102;2022-07-24T02:55:11;19.00;99.90
27890;DHT22;15238;49.082;9.102;2022-07-24T02:57:11;18.90;99.90
27890;DHT22;15238;49.082;9.102;2022-07-24T02:59:12;19.00;99.90
27890;DHT22;15238;49.082;9.102;2022-07-24T03:01:12;19.00;99.90
27890;DHT22;15238;49.082;9.102;2022-07-24T03:03:13;19.00;99.90
27890;DHT22;15238;49.082;9.102;2022-07-24T03:05:14;18.90;99.90
27890;DHT22;15238;49.082;9.102;2022-07-24T03:07:15;18.90;99.90
27890;DHT22;15238;49.082;9.102;2022-07-24T03:09:15;18.80;99.90
27890;DHT22;15238;49.082;9.102;2022-07-24T03:11:16;18.80;99.90
27890;DHT22;15238;49.082;9.102;2022-07-24T03:13:16;18.90;99.90
27890;DHT22;15238;49.082;9.102;2022-07-24T03:15:17;18.90;99.90
27890;DHT22;15238;49.082;9.102;2022-07-24T03:17:18;18.80;99.90
27890;DHT22;15238;49.082;9.102;2022-07-24T03:19:18;18.70;99.90
27890;DHT22;15238;49.082;9.102;2022-07-24T03:21:19;18.60;99.90
27890;DHT22;15238;49.082;9.102;2022-07-24T03:23:19;18.60;99.90
27890;DHT22;15238;49.082;9.102;2022-07-24T03:25:20;18.60;99.90
27890;DHT22;15238;49.082;9.102;2022-07-24T03:27:21;18.60;99.90
27890;DHT22;15238;49.082;9.102;2022-07-24T03:29:22;18.60;99.90
27890;DHT22;15238;49.082;9.102;2022-07-24T03:31:22;18.60;99.90
27890;DHT22;15238;49.082;9.102;2022-07-24T03:33:23;18.60;99.90
27890;DHT22;15238;49.082;9.102;2022-07-24T03:35:24;18.60;99.90
27890;DHT22;15238;49.082;9.102;2022-07-24T03:37:24;18.60;99.90
27890;DHT22;15238;49.082;9.102;2022-07-24T03:39:25;18.60;99.90
27890;DHT22;15238;49.082;9.102;2022-07-24T03:41:25;18.60;99.90
27890;DHT22;15238;49.082;9.102;2022-07-24T03:43:26;18.60;99.90
27890;DHT22;15238;49.082;9.102;2022-07-24T03:45:26;18.60;99.90
27890;DHT22;15238;49.082;9.102;2022-07-24T03:47:27;18.60;99.90
27890;DHT22;15238;49.082;9.102;2022-07-24T03:49:27;18.60;99.90
27890;DHT22;15238;49.082;9.102;2022-07-24T03:51:28;18.50;99.90
27890;DHT22;15238;49.082;9.102;2022-07-24T03:53:28;18.60;99.90
27890;DHT22;15238;49.082;9.102;2022-07-24T03:55:29;18.60;99.90
27890;DHT22;15238;49.082;9.102;2022-07-24T03:57:29;18.60;99.90
27890;DHT22;15238;49.082;9.102;2022-07-24T03:59:30;18.60;99.90
27890;DHT22;15238;49.082;9.102;2022-07-24T04:01:30;18.50;99.90
27890;DHT22;15238;49.082;9.102;2022-07-24T04:03:31;18.50;99.90
27890;DHT22;15238;49.082;9.102;2022-07-24T04:05:31;18.50;99.90
27890;DHT22;15238;49.082;9.102;2022-07-24T04:07:32;18.50;99.90
27890;DHT22;15238;49.082;9.102;2022-07-24T04:09:32;18.50;99.90
27890;DHT22;15238;49.082;9.102;2022-07-24T04:11:33;18.50;99.90
27890;DHT22;15238;49.082;9.102;2022-07-24T04:13:33;18.50;99.90
27890;DHT22;15238;49.082;9.102;2022-07-24T04:15:34;18.50;99.90
27890;DHT22;15238;49.082;9.102;2022-07-24T04:17:38;18.50;99.90
27890;DHT22;15238;49.082;9.102;2022-07-24T04:19:39;18.50;99.90
27890;DHT22;15238;49.082;9.102;2022-07-24T04:21:39;18.50;99.90
27890;DHT22;15238;49.082;9.102;2022-07-24T04:23:40;18.60;99.90
27890;DHT22;15238;49.082;9.102;2022-07-24T04:25:41;18.60;99.90
27890;DHT22;15238;49.082;9.102;2022-07-24T04:27:41;18.60;99.90
27890;DHT22;15238;49.082;9.102;2022-07-24T04:29:43;18.60;99.90
27890;DHT22;15238;49.082;9.102;2022-07-24T04:31:44;18.60;99.90
27890;DHT22;15238;49.082;9.102;2022-07-24T04:33:45;18.70;99.90
27890;DHT22;15238;49.082;9.102;2022-07-24T04:35:46;18.70;99.90
27890;DHT22;15238;49.082;9.102;2022-07-24T04:37:46;18.80;99.90
27890;DHT22;15238;49.082;9.102;2022-07-24T04:39:47;18.90;99.90
27890;DHT22;15238;49.082;9.102;2022-07-24T04:41:48;19.00;99.90
27890;DHT22;15238;49.082;9.102;2022-07-24T04:43:48;19.10;99.90
27890;DHT22;15238;49.082;9.102;2022-07-24T04:45:49;19.10;99.90
27890;DHT22;15238;49.082;9.102;2022-07-24T04:47:50;19.10;99.90
27890;DHT22;15238;49.082;9.102;2022-07-24T04:49:50;19.20;99.90
27890;DHT22;15238;49.082;9.102;2022-07-24T04:51:51;19.20;99.90
27890;DHT22;15238;49.082;9.102;2022-07-24T04:53:51;19.20;99.90
27890;DHT22;15238;49.082;9.102;2022-07-24T04:55:55;19.20;99.90
27890;DHT22;15238;49.082;9.102;2022-07-24T04:57:55;19.30;99.90
27890;DHT22;15238;49.082;9.102;2022-07-24T04:59:56;19.40;99.90
27890;DHT22;15238;49.082;9.102;2022-07-24T05:01:56;19.40;99.90
27890;DHT22;15238;49.082;9.102;2022-07-24T05:03:57;19.50;99.90
27890;DHT22;15238;49.082;9.102;2022-07-24T05:05:58;19.60;99.90
27890;DHT22;15238;49.082;9.102;2022-07-24T05:07:59;19.60;99.90
27890;DHT22;15238;49.082;9.102;2022-07-24T05:10:00;19.70;99.90
27890;DHT22;15238;49.082;9.102;2022-07-24T05:12:00;19.80;99.90
27890;DHT22;15238;49.082;9.102;2022-07-24T05:14:01;19.90;99.90
27890;DHT22;15238;49.082;9.102;2022-07-24T05:16:01;20.00;99.90
27890;DHT22;15238;49.082;9.102;2022-07-24T05:18:02;20.20;99.90
27890;DHT22;15238;49.082;9.102;2022-07-24T05:20:04;20.30;99.90
27890;DHT22;15238;49.082;9.102;2022-07-24T05:22:05;20.50;99.90
27890;DHT22;15238;49.082;9.102;2022-07-24T05:24:06;20.60;99.90
27890;DHT22;15238;49.082;9.102;2022-07-24T05:26:07;20.80;99.90
27890;DHT22;15238;49.082;9.102;2022-07-24T05:28:07;21.00;99.90
27890;DHT22;15238;49.082;9.102;2022-07-24T05:30:08;21.20;99.90
27890;DHT22;15238;49.082;9.102;2022-07-24T05:32:09;21.30;99.90
27890;DHT22;15238;49.082;9.102;2022-07-24T05:34:10;21.50;99.90
27890;DHT22;15238;49.082;9.102;2022-07-24T05:36:10;21.70;99.90
27890;DHT22;15238;49.082;9.102;2022-07-24T05:38:11;21.80;99.90
27890;DHT22;15238;49.082;9.102;2022-07-24T05:40:12;22.00;99.90
27890;DHT22;15238;49.082;9.102;2022-07-24T05:42:12;22.20;99.90
27890;DHT22;15238;49.082;9.102;2022-07-24T05:44:13;22.40;99.90
27890;DHT22;15238;49.082;9.102;2022-07-24T05:46:13;22.60;99.90
27890;DHT22;15238;49.082;9.102;2022-07-24T05:48:14;22.70;99.90
27890;DHT22;15238;49.082;9.102;2022-07-24T05:50:14;22.90;99.90
27890;DHT22;15238;49.082;9.102;2022-07-24T05:52:15;23.10;99.90
27890;DHT22;15238;49.082;9.102;2022-07-24T05:54:15;23.30;99.90
27890;DHT22;15238;49.082;9.102;2022-07-24T05:56:16;23.60;99.90
27890;DHT22;15238;49.082;9.102;2022-07-24T05:58:17;23.80;99.90
27890;DHT22;15238;49.082;9.102;2022-07-24T06:00:17;23.90;99.90
27890;DHT22;15238;49.082;9.102;2022-07-24T06:02:19;24.00;99.90
27890;DHT22;15238;49.082;9.102;2022-07-24T06:04:19;24.10;99.90
27890;DHT22;15238;49.082;9.102;2022-07-24T06:06:20;24.20;99.90
27890;DHT22;15238;49.082;9.102;2022-07-24T06:08:20;24.10;99.90
27890;DHT22;15238;49.082;9.102;2022-07-24T06:10:21;24.00;99.90
27890;DHT22;15238;49.082;9.102;2022-07-24T06:12:22;24.00;99.90
27890;DHT22;15238;49.082;9.102;2022-07-24T06:14:22;24.20;99.90
27890;DHT22;15238;49.082;9.102;2022-07-24T06:16:23;24.40;99.90
27890;DHT22;15238;49.082;9.102;2022-07-24T06:18:23;24.60;99.90
27890;DHT22;15238;49.082;9.102;2022-07-24T06:20:24;24.70;99.90
27890;DHT22;15238;49.082;9.102;2022-07-24T06:22:25;24.90;99.90
27890;DHT22;15238;49.082;9.102;2022-07-24T06:24:25;25.00;99.90
27890;DHT22;15238;49.082;9.102;2022-07-24T06:26:26;25.00;99.90
27890;DHT22;15238;49.082;9.102;2022-07-24T06:28:26;25.20;99.90
27890;DHT22;15238;49.082;9.102;2022-07-24T06:30:28;25.30;99.90
27890;DHT22;15238;49.082;9.102;2022-07-24T06:32:28;25.40;99.90
27890;DHT22;15238;49.082;9.102;2022-07-24T06:34:29;25.50;99.90
27890;DHT22;15238;49.082;9.102;2022-07-24T06:36:29;25.70;99.90
27890;DHT22;15238;49.082;9.102;2022-07-24T06:38:30;25.80;99.90
27890;DHT22;15238;49.082;9.102;2022-07-24T06:40:30;25.90;99.90
27890;DHT22;15238;49.082;9.102;2022-07-24T06:42:31;25.90;99.90
27890;DHT22;15238;49.082;9.102;2022-07-24T06:44:31;26.00;99.90
27890;DHT22;15238;49.082;9.102;2022-07-24T06:46:33;25.90;99.90
27890;DHT22;15238;49.082;9.102;2022-07-24T06:48:34;26.00;99.90
27890;DHT22;15238;49.082;9.102;2022-07-24T06:50:35;26.30;99.70
27890;DHT22;15238;49.082;9.102;2022-07-24T06:52:36;26.40;99.60
27890;DHT22;15238;49.082;9.102;2022-07-24T06:54:36;26.40;98.60
27890;DHT22;15238;49.082;9.102;2022-07-24T06:56:37;26.30;99.00
27890;DHT22;15238;49.082;9.102;2022-07-24T06:58:37;26.20;99.30
27890;DHT22;15238;49.082;9.102;2022-07-24T07:00:38;26.30;98.60
27890;DHT22;15238;49.082;9.102;2022-07-24T07:02:38;26.40;98.70
27890;DHT22;15238;49.082;9.102;2022-07-24T07:04:39;26.50;98.20
27890;DHT22;15238;49.082;9.102;2022-07-24T07:06:39;26.70;97.60
27890;DHT22;15238;49.082;9.102;2022-07-24T07:08:40;26.80;97.10
27890;DHT22;15238;49.082;9.102;2022-07-24T07:10:40;27.00;96.70
27890;DHT22;15238;49.082;9.102;2022-07-24T07:12:41;27.10;96.10
27890;DHT22;15238;49.082;9.102;2022-07-24T07:14:42;27.10;95.80
27890;DHT22;15238;49.082;9.102;2022-07-24T07:16:43;26.80;95.60
27890;DHT22;15238;49.082;9.102;2022-07-24T07:18:43;26.90;96.10
27890;DHT22;15238;49.082;9.102;2022-07-24T07:20:44;27.10;95.90
27890;DHT22;15238;49.082;9.102;2022-07-24T07:22:44;27.00;95.80
27890;DHT22;15238;49.082;9.102;2022-07-24T07:24:45;27.00;96.20
27890;DHT22;15238;49.082;9.102;2022-07-24T07:26:46;27.00;95.40
27890;DHT22;15238;49.082;9.102;2022-07-24T07:28:46;27.30;95.40
27890;DHT22;15238;49.082;9.102;2022-07-24T07:30:47;27.30;95.10
27890;DHT22;15238;49.082;9.102;2022-07-24T07:32:47;27.30;94.60
27890;DHT22;15238;49.082;9.102;2022-07-24T07:34:48;27.10;94.80
27890;DHT22;15238;49.082;9.102;2022-07-24T07:36:48;27.40;94.80
27890;DHT22;15238;49.082;9.102;2022-07-24T07:38:49;27.50;94.80
27890;DHT22;15238;49.082;9.102;2022-07-24T07:40:49;27.60;94.40
27890;DHT22;15238;49.082;9.102;2022-07-24T07:42:50;27.30;95.10
27890;DHT22;15238;49.082;9.102;2022-07-24T07:44:50;27.40;94.80
27890;DHT22;15238;49.082;9.102;2022-07-24T07:46:51;27.30;93.60
27890;DHT22;15238;49.082;9.102;2022-07-24T07:48:53;26.80;94.10
27890;DHT22;15238;49.082;9.102;2022-07-24T07:50:54;27.10;94.60
27890;DHT22;15238;49.082;9.102;2022-07-24T07:52:55;27.40;94.00
27890;DHT22;15238;49.082;9.102;2022-07-24T07:54:55;27.40;93.70
27890;DHT22;15238;49.082;9.102;2022-07-24T07:56:56;27.10;94.00
27890;DHT22;15238;49.082;9.102;2022-07-24T07:58:57;27.30;94.00
27890;DHT22;15238;49.082;9.102;2022-07-24T08:00:57;27.50;93.50
27890;DHT22;15238;49.082;9.102;2022-07-24T08:02:58;28.00;93.60
27890;DHT22;15238;49.082;9.102;2022-07-24T08:04:58;28.10;92.30
27890;DHT22;15238;49.082;9.102;2022-07-24T08:06:59;27.80;92.50
27890;DHT22;15238;49.082;9.102;2022-07-24T08:08:59;28.10;92.20
27890;DHT22;15238;49.082;9.102;2022-07-24T08:11:00;28.00;91.90
27890;DHT22;15238;49.082;9.102;2022-07-24T08:13:00;27.90;91.70
27890;DHT22;15238;49.082;9.102;2022-07-24T08:15:01;28.10;91.10
27890;DHT22;15238;49.082;9.102;2022-07-24T08:17:01;28.10;91.30
27890;DHT22;15238;49.082;9.102;2022-07-24T08:19:02;28.30;91.00
27890;DHT22;15238;49.082;9.102;2022-07-24T08:21:04;28.60;90.60
27890;DHT22;15238;49.082;9.102;2022-07-24T08:23:04;28.90;90.90
27890;DHT22;15238;49.082;9.102;2022-07-24T08:25:05;29.10;90.70
27890;DHT22;15238;49.082;9.102;2022-07-24T08:27:06;29.20;90.50
27890;DHT22;15238;49.082;9.102;2022-07-24T08:29:07;29.40;89.30
27890;DHT22;15238;49.082;9.102;2022-07-24T08:31:07;29.30;88.10
27890;DHT22;15238;49.082;9.102;2022-07-24T08:33:08;29.00;87.30
27890;DHT22;15238;49.082;9.102;2022-07-24T08:35:09;29.20;87.80
27890;DHT22;15238;49.082;9.102;2022-07-24T08:37:10;28.90;87.70
27890;DHT22;15238;49.082;9.102;2022-07-24T08:39:12;28.50;88.20
27890;DHT22;15238;49.082;9.102;2022-07-24T08:41:13;28.60;89.00
27890;DHT22;15238;49.082;9.102;2022-07-24T08:43:14;28.90;88.90
27890;DHT22;15238;49.082;9.102;2022-07-24T08:45:15;28.90;88.10
27890;DHT22;15238;49.082;9.102;2022-07-24T08:47:17;29.00;88.00
27890;DHT22;15238;49.082;9.102;2022-07-24T08:49:19;29.50;87.00
27890;DHT22;15238;49.082;9.102;2022-07-24T08:51:21;29.50;86.00
27890;DHT22;15238;49.082;9.102;2022-07-24T08:53:22;29.40;87.60
27890;DHT22;15238;49.082;9.102;2022-07-24T08:55:24;29.30;85.70
27890;DHT22;15238;49.082;9.102;2022-07-24T08:57:24;29.50;85.60
27890;DHT22;15238;49.082;9.102;2022-07-24T08:59:25;29.80;84.50
27890;DHT22;15238;49.082;9.102;2022-07-24T09:01:26;30.00;85.30
27890;DHT22;15238;49.082;9.102;2022-07-24T09:03:27;29.90;83.90
27890;DHT22;15238;49.082;9.102;2022-07-24T09:05:28;29.90;84.20
27890;DHT22;15238;49.082;9.102;2022-07-24T09:07:30;30.20;83.40
27890;DHT22;15238;49.082;9.102;2022-07-24T09:09:31;30.00;82.20
27890;DHT22;15238;49.082;9.102;2022-07-24T09:11:36;30.20;82.60
27890;DHT22;15238;49.082;9.102;2022-07-24T09:13:37;30.50;81.60
27890;DHT22;15238;49.082;9.102;2022-07-24T09:16:01;30.70;81.80
27890;DHT22;15238;49.082;9.102;2022-07-24T09:18:01;30.10;82.50
27890;DHT22;15238;49.082;9.102;2022-07-24T09:20:02;30.30;82.30
27890;DHT22;15238;49.082;9.102;2022-07-24T09:22:03;30.50;80.10
27890;DHT22;15238;49.082;9.102;2022-07-24T09:24:19;30.40;80.90
27890;DHT22;15238;49.082;9.102;2022-07-24T09:26:20;30.70;80.20
27890;DHT22;15238;49.082;9.102;2022-07-24T09:28:23;30.90;80.60
27890;DHT22;15238;49.082;9.102;2022-07-24T09:32:25;30.10;81.60
27890;DHT22;15238;49.082;9.102;2022-07-24T09:34:28;30.50;82.10
27890;DHT22;15238;49.082;9.102;2022-07-24T09:36:29;30.80;79.50
27890;DHT22;15238;49.082;9.102;2022-07-24T09:38:30;31.00;80.10
27890;DHT22;15238;49.082;9.102;2022-07-24T09:40:36;31.30;79.00
27890;DHT22;15238;49.082;9.102;2022-07-24T09:42:37;31.20;77.50
27890;DHT22;15238;49.082;9.102;2022-07-24T09:44:41;31.20;77.50
27890;DHT22;15238;49.082;9.102;2022-07-24T09:46:46;31.30;76.50
27890;DHT22;15238;49.082;9.102;2022-07-24T09:48:51;31.30;76.40
27890;DHT22;15238;49.082;9.102;2022-07-24T09:50:54;31.40;75.70
27890;DHT22;15238;49.082;9.102;2022-07-24T09:52:56;31.40;75.50
27890;DHT22;15238;49.082;9.102;2022-07-24T09:54:57;31.30;75.50
27890;DHT22;15238;49.082;9.102;2022-07-24T09:57:22;31.30;74.50
27890;DHT22;15238;49.082;9.102;2022-07-24T09:59:25;31.00;75.10
27890;DHT22;15238;49.082;9.102;2022-07-24T10:01:29;30.90;74.90
27890;DHT22;15238;49.082;9.102;2022-07-24T10:03:31;31.10;75.30
27890;DHT22;15238;49.082;9.102;2022-07-24T10:05:33;31.40;73.50
27890;DHT22;15238;49.082;9.102;2022-07-24T10:07:37;30.80;72.70
27890;DHT22;15238;49.082;9.102;2022-07-24T10:09:42;30.60;74.10
27890;DHT22;15238;49.082;9.102;2022-07-24T10:11:44;30.90;73.60
27890;DHT22;15238;49.082;9.102;2022-07-24T10:13:46;31.00;72.00
27890;DHT22;15238;49.082;9.102;2022-07-24T10:18:16;30.80;69.90
27890;DHT22;15238;49.082;9.102;2022-07-24T10:20:36;30.80;69.00
27890;DHT22;15238;49.082;9.102;2022-07-24T10:22:51;30.70;70.30
27890;DHT22;15238;49.082;9.102;2022-07-24T10:24:58;30.80;70.40
27890;DHT22;15238;49.082;9.102;2022-07-24T10:27:04;31.10;69.10
27890;DHT22;15238;49.082;9.102;2022-07-24T10:29:07;31.50;69.10
27890;DHT22;15238;49.082;9.102;2022-07-24T10:31:10;31.90;70.20
27890;DHT22;15238;49.082;9.102;2022-07-24T10:33:11;31.70;70.30
27890;DHT22;15238;49.082;9.102;2022-07-24T10:35:17;32.00;69.00
27890;DHT22;15238;49.082;9.102;2022-07-24T10:37:42;32.10;68.30
27890;DHT22;15238;49.082;9.102;2022-07-24T10:42:01;31.90;67.20
27890;DHT22;15238;49.082;9.102;2022-07-24T10:44:18;32.00;66.80
27890;DHT22;15238;49.082;9.102;2022-07-24T10:46:20;31.90;65.90
27890;DHT22;15238;49.082;9.102;2022-07-24T10:50:21;32.10;63.20
27890;DHT22;15238;49.082;9.102;2022-07-24T10:52:30;32.20;63.50
27890;DHT22;15238;49.082;9.102;2022-07-24T10:54:33;31.90;62.10
27890;DHT22;15238;49.082;9.102;2022-07-24T10:58:54;31.90;64.20
27890;DHT22;15238;49.082;9.102;2022-07-24T11:00:55;32.00;62.40
27890;DHT22;15238;49.082;9.102;2022-07-24T11:02:58;31.70;64.10
27890;DHT22;15238;49.082;9.102;2022-07-24T11:05:28;31.90;64.30
27890;DHT22;15238;49.082;9.102;2022-07-24T11:07:30;32.10;63.20
27890;DHT22;15238;49.082;9.102;2022-07-24T11:09:30;32.20;63.40
27890;DHT22;15238;49.082;9.102;2022-07-24T11:11:31;32.10;62.70
27890;DHT22;15238;49.082;9.102;2022-07-24T11:18:24;32.00;62.60
27890;DHT22;15238;49.082;9.102;2022-07-24T11:20:32;32.30;63.40
27890;DHT22;15238;49.082;9.102;2022-07-24T11:22:39;32.40;63.10
27890;DHT22;15238;49.082;9.102;2022-07-24T11:24:41;32.60;61.30
27890;DHT22;15238;49.082;9.102;2022-07-24T11:26:59;32.50;60.20
27890;DHT22;15238;49.082;9.102;2022-07-24T11:29:21;32.20;63.00
27890;DHT22;15238;49.082;9.102;2022-07-24T11:31:27;32.00;62.40
27890;DHT22;15238;49.082;9.102;2022-07-24T11:33:28;31.90;63.60
27890;DHT22;15238;49.082;9.102;2022-07-24T11:35:33;31.90;62.30
27890;DHT22;15238;49.082;9.102;2022-07-24T11:37:38;32.10;62.90
27890;DHT22;15238;49.082;9.102;2022-07-24T11:39:40;32.10;61.00
27890;DHT22;15238;49.082;9.102;2022-07-24T11:41:53;32.30;61.60
27890;DHT22;15238;49.082;9.102;2022-07-24T11:43:54;32.60;60.40
27890;DHT22;15238;49.082;9.102;2022-07-24T11:45:54;32.80;61.30
27890;DHT22;15238;49.082;9.102;2022-07-24T11:47:55;33.00;60.90
27890;DHT22;15238;49.082;9.102;2022-07-24T11:49:59;33.00;59.00
27890;DHT22;15238;49.082;9.102;2022-07-24T11:52:01;32.90;59.10
27890;DHT22;15238;49.082;9.102;2022-07-24T11:54:01;33.10;59.20
27890;DHT22;15238;49.082;9.102;2022-07-24T11:56:03;33.00;58.70
27890;DHT22;15238;49.082;9.102;2022-07-24T11:58:04;33.10;59.20
27890;DHT22;15238;49.082;9.102;2022-07-24T12:00:10;33.30;58.70
27890;DHT22;15238;49.082;9.102;2022-07-24T12:02:11;33.40;59.90
27890;DHT22;15238;49.082;9.102;2022-07-24T12:04:19;33.30;58.30
27890;DHT22;15238;49.082;9.102;2022-07-24T12:06:20;33.20;58.10
27890;DHT22;15238;49.082;9.102;2022-07-24T12:08:22;33.20;57.70
27890;DHT22;15238;49.082;9.102;2022-07-24T12:10:27;33.20;58.70
27890;DHT22;15238;49.082;9.102;2022-07-24T12:12:40;32.90;57.70
27890;DHT22;15238;49.082;9.102;2022-07-24T12:14:41;32.90;57.90
27890;DHT22;15238;49.082;9.102;2022-07-24T12:16:42;32.60;57.60
27890;DHT22;15238;49.082;9.102;2022-07-24T12:18:43;32.40;58.70
27890;DHT22;15238;49.082;9.102;2022-07-24T12:20:44;32.30;57.60
27890;DHT22;15238;49.082;9.102;2022-07-24T12:22:46;32.30;58.80
27890;DHT22;15238;49.082;9.102;2022-07-24T12:24:48;32.40;59.30
27890;DHT22;15238;49.082;9.102;2022-07-24T12:26:57;32.50;57.70
27890;DHT22;15238;49.082;9.102;2022-07-24T12:29:11;32.40;57.60
27890;DHT22;15238;49.082;9.102;2022-07-24T12:31:12;32.30;57.20
27890;DHT22;15238;49.082;9.102;2022-07-24T12:33:23;32.50;57.90
27890;DHT22;15238;49.082;9.102;2022-07-24T12:35:28;32.70;57.40
27890;DHT22;15238;49.082;9.102;2022-07-24T12:37:29;32.70;56.70
27890;DHT22;15238;49.082;9.102;2022-07-24T12:39:30;32.40;56.80
27890;DHT22;15238;49.082;9.102;2022-07-24T12:41:31;32.10;57.80
27890;DHT22;15238;49.082;9.102;2022-07-24T12:43:33;32.00;57.90
27890;DHT22;15238;49.082;9.102;2022-07-24T12:45:33;32.20;58.30
27890;DHT22;15238;49.082;9.102;2022-07-24T12:48:03;32.50;58.00
27890;DHT22;15238;49.082;9.102;2022-07-24T12:49:55;32.90;57.50
27890;DHT22;15238;49.082;9.102;2022-07-24T12:52:00;33.10;56.40
27890;DHT22;15238;49.082;9.102;2022-07-24T12:54:01;33.20;56.00
27890;DHT22;15238;49.082;9.102;2022-07-24T12:56:09;33.30;55.70
27890;DHT22;15238;49.082;9.102;2022-07-24T12:58:10;33.30;55.50
27890;DHT22;15238;49.082;9.102;2022-07-24T13:00:11;33.30;55.60
27890;DHT22;15238;49.082;9.102;2022-07-24T13:02:18;33.30;55.60
27890;DHT22;15238;49.082;9.102;2022-07-24T13:04:21;33.30;56.40
27890;DHT22;15238;49.082;9.102;2022-07-24T13:06:40;33.30;55.40